createdAt,value
2019-04-04T00:09:49.101Z,21.50
2019-04-04T00:20:32.742Z,18.50
2019-04-04T00:31:18.729Z,18.80
2019-04-04T00:41:59.920Z,19.30
2019-04-04T00:52:42.348Z,21.20
2019-04-04T01:03:29.760Z,21.50
2019-04-04T01:14:11.794Z,22.30
2019-04-04T01:24:54.937Z,20.40
2019-04-04T01:35:37.600Z,21.50
2019-04-04T01:46:21.192Z,23.20
2019-04-04T01:57:07.818Z,22.60
2019-04-04T02:07:48.178Z,24.60
2019-04-04T02:18:32.820Z,24.20
2019-04-04T02:29:15.766Z,21.90
2019-04-04T02:39:58.897Z,25.40
2019-04-04T02:50:40.603Z,25.00
2019-04-04T03:01:23.868Z,27.90
2019-04-04T03:12:08.822Z,27.90
2019-04-04T03:22:53.334Z,24.80
2019-04-04T03:33:37.977Z,23.80
2019-04-04T03:44:21.893Z,23.50
2019-04-04T03:54:59.731Z,22.90
2019-04-04T04:05:41.670Z,23.50
2019-04-04T04:16:24.945Z,24.10
2019-04-04T04:27:14.413Z,23.50
2019-04-04T04:37:52.258Z,25.00
2019-04-04T04:48:32.110Z,27.70
2019-04-04T04:59:15.193Z,27.50
2019-04-04T05:09:59.073Z,29.50
2019-04-04T05:20:40.876Z,31.50
2019-04-04T05:31:21.018Z,31.90
2019-04-04T05:42:05.240Z,32.40
2019-04-04T05:52:41.857Z,34.20
2019-04-04T06:03:24.475Z,30.70
2019-04-04T06:14:08.808Z,29.30
2019-04-04T06:24:47.144Z,26.90
2019-04-04T06:35:29.516Z,29.60
2019-04-04T06:46:14.079Z,32.30
2019-04-04T06:56:59.260Z,30.80
2019-04-04T07:07:43.875Z,34.20
2019-04-04T07:18:25.584Z,32.70
2019-04-04T07:29:12.984Z,37.40
2019-04-04T07:39:57.333Z,34.80
2019-04-04T07:50:41.513Z,38.20
2019-04-04T08:01:23.843Z,32.20
2019-04-04T08:12:07.086Z,30.00
2019-04-04T08:22:51.801Z,26.70
2019-04-04T08:33:35.848Z,19.30
2019-04-04T08:44:18.245Z,14.80
2019-04-04T08:55:02.156Z,14.30
2019-04-04T09:05:46.068Z,12.40
2019-04-04T09:16:30.269Z,12.40
2019-04-04T09:27:14.725Z,14.10
2019-04-04T09:37:55.480Z,13.20
2019-04-04T09:48:40.860Z,12.90
2019-04-04T09:59:26.878Z,12.80
2019-04-04T10:10:05.734Z,13.80
2019-04-04T10:20:45.279Z,12.90
2019-04-04T10:31:29.365Z,13.50
2019-04-04T10:42:02.718Z,12.30
2019-04-04T10:52:44.855Z,12.50
2019-04-04T11:03:26.856Z,10.90
2019-04-04T11:14:07.934Z,11.80
2019-04-04T11:24:46.555Z,10.80
2019-04-04T11:35:26.429Z,11.70
2019-04-04T11:46:05.277Z,11.40
2019-04-04T11:56:46.406Z,10.30
2019-04-04T12:07:26.376Z,9.90
2019-04-04T12:18:03.961Z,10.20
2019-04-04T12:28:43.058Z,8.00
2019-04-04T12:39:17.975Z,8.90
2019-04-04T12:49:57.641Z,6.60
2019-04-04T13:00:39.949Z,6.60
2019-04-04T13:11:17.101Z,6.20
2019-04-04T13:21:58.057Z,6.50
2019-04-04T13:32:36.157Z,5.80
2019-04-04T13:43:16.152Z,7.00
2019-04-04T13:53:57.951Z,8.00
2019-04-04T14:04:35.408Z,8.40
2019-04-04T14:15:16.102Z,7.80
2019-04-04T14:25:51.529Z,7.20
2019-04-04T14:36:32.737Z,5.80
2019-04-04T14:47:08.812Z,6.50
2019-04-04T14:57:50.074Z,6.90
2019-04-04T15:08:27.288Z,7.40
2019-04-04T15:19:10.950Z,7.60
2019-04-04T15:29:52.794Z,8.90
2019-04-04T15:40:35.523Z,7.10
2019-04-04T15:51:19.622Z,8.00
2019-04-04T16:02:05.617Z,7.90
2019-04-04T16:12:48.628Z,8.10
2019-04-04T16:23:32.351Z,10.40
2019-04-04T16:34:17.280Z,10.80
2019-04-04T16:45:02.445Z,11.70
2019-04-04T16:55:43.776Z,10.20
2019-04-04T17:06:25.253Z,10.10
2019-04-04T17:17:05.414Z,10.60
2019-04-04T17:27:45.106Z,11.20
2019-04-04T17:38:18.636Z,12.30
2019-04-04T17:48:50.927Z,13.50
2019-04-04T17:59:25.781Z,24.60
2019-04-04T18:10:09.717Z,18.80
2019-04-04T18:20:52.005Z,19.40
2019-04-04T18:31:35.688Z,18.20
2019-04-04T18:42:15.848Z,18.70
2019-04-04T18:52:58.338Z,20.10
2019-04-04T19:03:42.740Z,19.00
2019-04-04T19:14:26.874Z,21.00
2019-04-04T19:25:10.042Z,21.00
2019-04-04T19:35:48.975Z,26.60
2019-04-04T19:46:37.253Z,28.40
2019-04-04T19:57:16.811Z,34.70
2019-04-04T20:07:54.228Z,27.70
2019-04-04T20:18:35.527Z,26.90
2019-04-04T20:29:18.058Z,29.20
2019-04-04T20:40:01.603Z,32.90
2019-04-04T20:50:44.799Z,31.40
2019-04-04T21:01:30.323Z,32.00
2019-04-04T21:12:11.823Z,31.20
2019-04-04T21:22:45.387Z,33.00
2019-04-04T21:33:20.605Z,33.70
2019-04-04T21:44:08.093Z,35.00
2019-04-04T21:54:36.727Z,36.90
2019-04-04T22:05:17.423Z,42.80
2019-04-04T22:15:57.473Z,43.40
2019-04-04T22:26:34.917Z,47.40
2019-04-04T22:37:16.149Z,47.10
2019-04-04T22:47:59.142Z,37.70
2019-04-04T22:58:42.413Z,42.40
2019-04-04T23:09:25.854Z,42.80
2019-04-04T23:20:09.778Z,47.10
2019-04-04T23:30:52.583Z,48.70
2019-04-04T23:41:36.413Z,48.80
2019-04-04T23:52:19.118Z,43.00
